createdAt,value
2023-12-15T00:00:58.597Z,6.80
2023-12-15T00:03:26.647Z,6.70
2023-12-15T00:05:55.627Z,6.70
2023-12-15T00:08:23.694Z,6.80
2023-12-15T00:10:51.858Z,6.80
2023-12-15T00:13:21.218Z,6.80
2023-12-15T00:15:49.235Z,6.70
2023-12-15T00:18:17.320Z,6.70
2023-12-15T00:20:45.381Z,6.70
2023-12-15T00:23:14.097Z,6.70
2023-12-15T00:25:42.236Z,6.70
2023-12-15T00:28:10.247Z,6.70
2023-12-15T00:30:39.713Z,6.70
2023-12-15T00:33:07.763Z,6.80
2023-12-15T00:35:35.940Z,6.80
2023-12-15T00:38:04.000Z,6.80
2023-12-15T00:40:31.962Z,6.80
2023-12-15T00:42:59.952Z,6.80
2023-12-15T00:45:28.018Z,6.80
2023-12-15T00:47:57.378Z,6.80
2023-12-15T00:50:25.476Z,6.80
2023-12-15T00:52:53.507Z,6.80
2023-12-15T00:55:21.503Z,6.80
2023-12-15T00:57:49.541Z,6.80
2023-12-15T01:00:18.249Z,6.80
2023-12-15T01:02:46.620Z,6.80
2023-12-15T01:05:16.197Z,6.80
2023-12-15T01:07:46.736Z,6.90
2023-12-15T01:10:16.126Z,6.90
2023-12-15T01:12:44.134Z,6.90
2023-12-15T01:15:12.398Z,6.90
2023-12-15T01:17:40.744Z,6.90
2023-12-15T01:20:11.456Z,6.90
2023-12-15T01:22:40.969Z,7.00
2023-12-15T01:25:09.744Z,7.00
2023-12-15T01:27:37.973Z,7.00
2023-12-15T01:30:07.308Z,7.00
2023-12-15T01:32:35.453Z,7.00
2023-12-15T01:35:03.641Z,7.00
2023-12-15T01:37:31.641Z,7.00
2023-12-15T01:40:00.947Z,7.00
2023-12-15T01:42:29.107Z,7.00
2023-12-15T01:44:57.333Z,7.00
2023-12-15T01:47:26.379Z,7.00
2023-12-15T01:49:54.569Z,7.00
2023-12-15T01:52:22.809Z,7.00
2023-12-15T01:54:50.819Z,7.00
2023-12-15T01:57:20.226Z,6.90
2023-12-15T01:59:50.245Z,6.90
2023-12-15T02:02:19.113Z,6.90
2023-12-15T02:04:48.012Z,6.90
2023-12-15T02:07:16.124Z,6.90
2023-12-15T02:09:44.109Z,6.80
2023-12-15T02:12:12.092Z,6.70
2023-12-15T02:14:44.370Z,6.70
2023-12-15T02:17:13.574Z,6.70
2023-12-15T02:19:41.606Z,6.70
2023-12-15T02:22:10.213Z,6.60
2023-12-15T02:24:40.221Z,6.60
2023-12-15T02:27:08.346Z,6.50
2023-12-15T02:29:36.389Z,6.40
2023-12-15T02:32:04.824Z,6.40
2023-12-15T02:34:32.931Z,6.40
2023-12-15T02:37:02.627Z,6.30
2023-12-15T02:39:30.614Z,6.30
2023-12-15T02:42:00.021Z,6.30
2023-12-15T02:44:28.006Z,6.20
2023-12-15T02:46:56.091Z,6.20
2023-12-15T02:49:24.212Z,6.10
2023-12-15T02:51:53.626Z,6.10
2023-12-15T02:54:21.628Z,6.10
2023-12-15T02:56:49.681Z,6.00
2023-12-15T02:59:19.100Z,6.00
2023-12-15T03:01:47.075Z,6.00
2023-12-15T03:04:15.128Z,6.00
2023-12-15T03:06:43.580Z,5.90
2023-12-15T03:09:12.942Z,5.90
2023-12-15T03:11:40.956Z,5.90
2023-12-15T03:14:09.004Z,5.80
2023-12-15T03:16:38.448Z,5.80
2023-12-15T03:19:06.505Z,5.80
2023-12-15T03:21:34.649Z,5.80
2023-12-15T03:24:02.614Z,5.70
2023-12-15T03:26:30.620Z,5.70
2023-12-15T03:28:58.845Z,5.70
2023-12-15T03:31:26.819Z,5.70
2023-12-15T03:33:56.354Z,5.70
2023-12-15T03:36:24.381Z,5.60
2023-12-15T03:38:52.323Z,5.60
2023-12-15T03:41:20.381Z,5.60
2023-12-15T03:43:48.397Z,5.60
2023-12-15T03:46:16.426Z,5.60
2023-12-15T03:48:44.461Z,5.60
2023-12-15T03:51:13.870Z,5.60
2023-12-15T03:53:41.918Z,5.60
2023-12-15T03:56:11.204Z,5.50
2023-12-15T03:58:39.201Z,5.50
2023-12-15T04:01:07.514Z,5.50
2023-12-15T04:03:35.503Z,5.50
2023-12-15T04:06:03.679Z,5.40
2023-12-15T04:08:33.135Z,5.40
2023-12-15T04:11:01.248Z,5.40
2023-12-15T04:13:29.231Z,5.30
2023-12-15T04:16:00.244Z,5.30
2023-12-15T04:18:28.643Z,5.20
2023-12-15T04:20:56.770Z,5.20
2023-12-15T04:23:25.951Z,5.20
2023-12-15T04:25:55.519Z,5.20
2023-12-15T04:28:23.626Z,5.20
2023-12-15T04:30:51.604Z,5.20
2023-12-15T04:33:19.712Z,5.20
2023-12-15T04:35:47.774Z,5.20
2023-12-15T04:38:15.855Z,5.10
2023-12-15T04:40:44.349Z,5.10
2023-12-15T04:43:13.718Z,5.00
2023-12-15T04:45:41.665Z,5.00
2023-12-15T04:48:09.807Z,5.00
2023-12-15T04:50:37.850Z,5.00
2023-12-15T04:53:06.647Z,5.00
2023-12-15T04:55:34.765Z,5.00
2023-12-15T04:58:02.945Z,5.10
2023-12-15T05:00:32.280Z,5.10
2023-12-15T05:03:00.852Z,5.10
2023-12-15T05:05:28.985Z,5.20
2023-12-15T05:07:57.278Z,5.20
2023-12-15T05:10:25.354Z,5.20
2023-12-15T05:12:53.344Z,5.30
2023-12-15T05:15:21.627Z,5.30
2023-12-15T05:17:51.650Z,5.30
2023-12-15T05:20:21.212Z,5.40
2023-12-15T05:22:49.828Z,5.40
2023-12-15T05:25:18.213Z,5.40
2023-12-15T05:27:46.220Z,5.50
2023-12-15T05:30:14.719Z,5.50
2023-12-15T05:32:43.129Z,5.50
2023-12-15T05:35:13.047Z,5.50
2023-12-15T05:37:41.233Z,5.50
2023-12-15T05:40:13.193Z,5.50
2023-12-15T05:42:41.692Z,5.40
2023-12-15T05:45:10.286Z,5.40
2023-12-15T05:47:39.008Z,5.50
2023-12-15T05:50:08.825Z,5.50
2023-12-15T05:52:38.364Z,5.50
2023-12-15T05:55:07.257Z,5.50
2023-12-15T05:57:35.453Z,5.50
2023-12-15T06:00:04.306Z,5.50
2023-12-15T06:02:32.407Z,5.50
2023-12-15T06:05:00.850Z,5.60
2023-12-15T06:07:28.944Z,5.60
2023-12-15T06:09:58.285Z,5.60
2023-12-15T06:12:26.278Z,5.60
2023-12-15T06:14:54.265Z,5.60
2023-12-15T06:17:22.321Z,5.60
2023-12-15T06:19:50.384Z,5.60
2023-12-15T06:22:18.341Z,5.70
2023-12-15T06:24:46.320Z,5.70
2023-12-15T06:27:15.657Z,5.70
2023-12-15T06:29:43.683Z,5.70
2023-12-15T06:32:13.590Z,5.70
2023-12-15T06:34:43.565Z,5.80
2023-12-15T06:37:11.646Z,5.80
2023-12-15T06:39:39.690Z,5.80
2023-12-15T06:42:07.809Z,5.80
2023-12-15T06:44:37.746Z,5.80
2023-12-15T06:47:06.640Z,5.80
2023-12-15T06:49:34.782Z,5.80
2023-12-15T06:52:02.898Z,5.80
2023-12-15T06:54:30.895Z,5.80
2023-12-15T06:56:58.875Z,5.90
2023-12-15T06:59:26.891Z,5.90
2023-12-15T07:01:56.265Z,5.90
2023-12-15T07:04:24.299Z,5.90
2023-12-15T07:06:52.390Z,5.90
2023-12-15T07:09:20.517Z,5.90
2023-12-15T07:11:48.788Z,5.90
2023-12-15T07:14:16.856Z,5.90
2023-12-15T07:16:44.933Z,5.90
2023-12-15T07:19:14.427Z,5.90
2023-12-15T07:21:42.489Z,6.00
2023-12-15T07:24:10.473Z,6.00
2023-12-15T07:26:39.249Z,6.00
2023-12-15T07:29:07.616Z,6.10
2023-12-15T07:31:37.215Z,6.10
2023-12-15T07:34:05.552Z,6.20
2023-12-15T07:36:35.066Z,6.20
2023-12-15T07:39:03.038Z,6.20
2023-12-15T07:41:32.507Z,6.30
2023-12-15T07:44:00.686Z,6.30
2023-12-15T07:46:28.762Z,6.30
2023-12-15T07:48:56.909Z,6.30
2023-12-15T07:51:24.977Z,6.30
2023-12-15T07:53:54.318Z,6.30
2023-12-15T07:56:23.891Z,6.30
2023-12-15T07:58:52.359Z,6.30
2023-12-15T08:01:20.859Z,6.40
2023-12-15T08:03:49.524Z,6.40
2023-12-15T08:06:18.719Z,6.40
2023-12-15T08:08:48.079Z,6.50
2023-12-15T08:11:17.572Z,6.50
2023-12-15T08:13:45.649Z,6.50
2023-12-15T08:16:14.803Z,6.60
2023-12-15T08:18:44.876Z,6.60
2023-12-15T08:21:13.357Z,6.60
2023-12-15T08:23:41.428Z,6.60
2023-12-15T08:26:09.536Z,6.70
2023-12-15T08:28:39.293Z,6.70
2023-12-15T08:31:07.687Z,6.70
2023-12-15T08:33:35.871Z,6.70
2023-12-15T08:36:04.134Z,6.70
2023-12-15T08:38:32.282Z,6.70
2023-12-15T08:41:00.508Z,6.70
2023-12-15T08:43:29.147Z,6.80
2023-12-15T08:45:58.534Z,6.80
2023-12-15T08:48:26.641Z,6.80
2023-12-15T08:50:54.730Z,6.80
2023-12-15T08:53:22.902Z,6.80
2023-12-15T08:55:51.119Z,6.80
2023-12-15T08:58:19.830Z,6.80
2023-12-15T09:00:47.940Z,6.80
2023-12-15T09:03:18.427Z,6.90
2023-12-15T09:06:07.616Z,6.90
2023-12-15T09:08:34.604Z,7.00
2023-12-15T09:11:02.755Z,7.00
2023-12-15T09:13:30.804Z,7.10
2023-12-15T09:15:58.881Z,7.10
2023-12-15T09:18:28.539Z,7.10
2023-12-15T09:20:57.097Z,7.20
2023-12-15T09:23:25.244Z,7.20
2023-12-15T09:25:54.751Z,7.20
2023-12-15T09:28:24.033Z,7.30
2023-12-15T09:30:52.095Z,7.30
2023-12-15T09:33:20.320Z,7.30
2023-12-15T09:35:54.541Z,7.30
2023-12-15T09:38:22.824Z,7.40
2023-12-15T09:40:50.925Z,7.40
2023-12-15T09:43:19.000Z,7.50
2023-12-15T09:45:47.697Z,7.50
2023-12-15T09:48:17.903Z,7.50
2023-12-15T09:50:56.988Z,7.60
2023-12-15T09:53:26.515Z,7.60
2023-12-15T09:55:54.590Z,7.70
2023-12-15T09:58:23.366Z,7.70
2023-12-15T10:00:52.103Z,7.70
2023-12-15T10:03:20.306Z,7.80
2023-12-15T10:05:48.924Z,7.80
2023-12-15T10:08:24.136Z,7.80
2023-12-15T10:10:53.333Z,7.90
2023-12-15T10:13:21.616Z,7.90
2023-12-15T10:15:52.626Z,7.90
2023-12-15T10:18:29.202Z,8.00
2023-12-15T10:21:05.423Z,8.00
2023-12-15T10:23:36.097Z,8.10
2023-12-15T10:26:06.768Z,8.10
2023-12-15T10:28:38.156Z,8.20
2023-12-15T10:31:06.784Z,8.20
2023-12-15T10:33:35.717Z,8.20
2023-12-15T10:36:04.490Z,8.20
2023-12-15T10:38:34.330Z,8.20
2023-12-15T10:41:02.538Z,8.20
2023-12-15T10:43:32.053Z,8.20
2023-12-15T10:46:04.542Z,8.20
2023-12-15T10:48:33.952Z,8.20
2023-12-15T10:51:03.081Z,8.20
2023-12-15T10:53:31.439Z,8.20
2023-12-15T10:56:01.311Z,8.20
2023-12-15T10:58:31.485Z,8.20
2023-12-15T11:01:00.835Z,8.20
2023-12-15T11:03:29.505Z,8.20
2023-12-15T11:05:58.228Z,8.20
2023-12-15T11:08:26.818Z,8.20
2023-12-15T11:10:55.036Z,8.20
2023-12-15T11:13:53.935Z,8.30
2023-12-15T11:16:24.994Z,8.30
2023-12-15T11:18:53.777Z,8.20
2023-12-15T11:21:22.039Z,8.30
2023-12-15T11:23:57.325Z,8.30
2023-12-15T11:26:29.474Z,8.20
2023-12-15T11:29:10.283Z,8.30
2023-12-15T11:31:41.661Z,8.20
2023-12-15T11:34:10.871Z,8.20
2023-12-15T11:36:43.295Z,8.20
2023-12-15T11:39:13.719Z,8.20
2023-12-15T11:41:43.710Z,8.20
2023-12-15T11:44:13.340Z,8.20
2023-12-15T11:46:42.326Z,8.10
2023-12-15T11:49:10.432Z,8.10
2023-12-15T11:51:39.163Z,8.10
2023-12-15T11:54:08.318Z,8.20
2023-12-15T11:56:36.444Z,8.10
2023-12-15T11:59:04.622Z,8.10
2023-12-15T12:01:38.951Z,8.10
2023-12-15T12:04:07.618Z,8.10
2023-12-15T12:06:36.013Z,8.10
2023-12-15T12:09:04.319Z,8.10
2023-12-15T12:11:31.717Z,8.10
2023-12-15T12:14:03.240Z,8.10
2023-12-15T12:16:35.271Z,8.20
2023-12-15T12:19:03.942Z,8.20
2023-12-15T12:21:33.183Z,8.20
2023-12-15T12:24:02.076Z,8.20
2023-12-15T12:26:30.416Z,8.30
2023-12-15T12:29:02.597Z,8.20
2023-12-15T12:31:32.897Z,8.30
2023-12-15T12:34:02.368Z,8.20
2023-12-15T12:36:30.483Z,8.20
2023-12-15T12:38:58.578Z,8.20
2023-12-15T12:41:26.576Z,8.20
2023-12-15T12:43:55.085Z,8.20
2023-12-15T12:46:23.280Z,8.10
2023-12-15T12:48:51.600Z,8.10
2023-12-15T12:51:21.049Z,8.10
2023-12-15T12:53:49.361Z,8.10
2023-12-15T12:56:19.009Z,8.20
2023-12-15T12:58:47.525Z,8.20
2023-12-15T13:01:15.665Z,8.20
2023-12-15T13:03:44.044Z,8.20
2023-12-15T13:06:12.233Z,8.20
2023-12-15T13:08:42.379Z,8.20
2023-12-15T13:11:10.576Z,8.30
2023-12-15T13:13:38.592Z,8.30
2023-12-15T13:16:07.075Z,8.30
2023-12-15T13:18:35.367Z,8.40
2023-12-15T13:21:03.496Z,8.30
2023-12-15T13:23:31.584Z,8.40
2023-12-15T13:26:01.040Z,8.30
2023-12-15T13:28:36.452Z,8.30
2023-12-15T13:31:06.010Z,8.30
2023-12-15T13:33:34.658Z,8.30
2023-12-15T13:36:10.690Z,8.40
2023-12-15T13:38:44.786Z,8.40
2023-12-15T13:41:15.081Z,8.40
2023-12-15T13:43:43.853Z,8.30
2023-12-15T13:46:12.364Z,8.40
2023-12-15T13:48:40.923Z,8.40
2023-12-15T13:51:10.113Z,8.40
2023-12-15T13:53:38.335Z,8.40
2023-12-15T13:56:06.861Z,8.40
2023-12-15T13:58:36.387Z,8.40
2023-12-15T14:01:04.876Z,8.40
2023-12-15T14:03:33.144Z,8.40
2023-12-15T14:06:02.549Z,8.40
2023-12-15T14:08:30.823Z,8.40
2023-12-15T14:11:01.127Z,8.40
2023-12-15T14:13:30.941Z,8.30
2023-12-15T14:16:08.162Z,8.30
2023-12-15T14:18:39.640Z,8.30
2023-12-15T14:21:08.288Z,8.30
2023-12-15T14:23:36.365Z,8.30
2023-12-15T14:26:04.871Z,8.20
2023-12-15T14:28:33.152Z,8.20
2023-12-15T14:31:03.223Z,8.20
2023-12-15T14:33:34.206Z,8.20
2023-12-15T14:36:02.774Z,8.20
2023-12-15T14:38:30.958Z,8.20
2023-12-15T14:41:00.860Z,8.20
2023-12-15T14:43:30.401Z,8.20
2023-12-15T14:45:58.461Z,8.10
2023-12-15T14:48:28.145Z,8.20
2023-12-15T14:50:56.356Z,8.20
2023-12-15T14:53:24.549Z,8.20
2023-12-15T14:55:52.559Z,8.20
2023-12-15T14:58:20.626Z,8.20
2023-12-15T15:00:48.975Z,8.20
2023-12-15T15:03:17.400Z,8.20
2023-12-15T15:05:47.221Z,8.20
2023-12-15T15:08:15.583Z,8.20
2023-12-15T15:10:43.704Z,8.20
2023-12-15T15:13:11.770Z,8.30
2023-12-15T15:15:39.793Z,8.30
2023-12-15T15:18:08.069Z,8.30
2023-12-15T15:20:36.751Z,8.40
2023-12-15T15:23:06.529Z,8.40
2023-12-15T15:25:34.709Z,8.40
2023-12-15T15:28:01.752Z,8.40
2023-12-15T15:30:30.429Z,8.40
2023-12-15T15:32:58.693Z,8.40
2023-12-15T15:35:28.522Z,8.40
2023-12-15T15:37:57.671Z,8.40
2023-12-15T15:40:27.259Z,8.40
2023-12-15T15:42:55.591Z,8.40
2023-12-15T15:45:23.720Z,8.40
2023-12-15T15:47:52.380Z,8.40
2023-12-15T15:50:20.551Z,8.40
2023-12-15T15:52:49.307Z,8.40
2023-12-15T15:55:18.063Z,8.40
2023-12-15T15:57:47.632Z,8.50
2023-12-15T16:00:18.249Z,8.50
2023-12-15T16:02:47.293Z,8.50
2023-12-15T16:05:15.533Z,8.50
2023-12-15T16:07:43.708Z,8.50
2023-12-15T16:10:12.447Z,8.60
2023-12-15T16:12:40.599Z,8.60
2023-12-15T16:15:11.085Z,8.60
2023-12-15T16:17:39.944Z,8.60
2023-12-15T16:20:09.705Z,8.60
2023-12-15T16:22:40.291Z,8.60
2023-12-15T16:25:09.236Z,8.60
2023-12-15T16:27:37.773Z,8.60
2023-12-15T16:30:08.084Z,8.60
2023-12-15T16:32:37.740Z,8.70
2023-12-15T16:35:06.987Z,8.70
2023-12-15T16:37:35.900Z,8.70
2023-12-15T16:40:05.923Z,8.70
2023-12-15T16:42:34.094Z,8.70
2023-12-15T16:45:02.129Z,8.80
2023-12-15T16:47:30.263Z,8.70
2023-12-15T16:50:00.129Z,8.70
2023-12-15T16:52:28.295Z,8.70
2023-12-15T16:54:56.383Z,8.80
2023-12-15T16:57:24.509Z,8.80
2023-12-15T16:59:52.508Z,8.80
2023-12-15T17:02:20.683Z,8.80
2023-12-15T17:04:48.730Z,8.80
2023-12-15T17:07:18.229Z,8.80
2023-12-15T17:09:46.881Z,8.80
2023-12-15T17:12:14.886Z,8.80
2023-12-15T17:14:42.865Z,8.80
2023-12-15T17:17:11.172Z,8.80
2023-12-15T17:19:39.733Z,8.90
2023-12-15T17:22:07.964Z,8.80
2023-12-15T17:24:39.169Z,8.90
2023-12-15T17:27:07.229Z,8.90
2023-12-15T17:29:44.022Z,8.90
2023-12-15T17:32:18.348Z,8.90
2023-12-15T17:34:46.572Z,8.90
2023-12-15T17:37:14.964Z,8.90
2023-12-15T17:39:44.578Z,8.90
2023-12-15T17:42:13.944Z,8.90
2023-12-15T17:44:42.865Z,8.90
2023-12-15T17:47:10.863Z,8.90
2023-12-15T17:49:39.032Z,8.90
2023-12-15T17:52:07.413Z,8.90
2023-12-15T17:54:35.444Z,8.90
2023-12-15T17:57:05.216Z,8.90
2023-12-15T17:59:33.749Z,9.00
2023-12-15T18:02:02.459Z,9.00
2023-12-15T18:04:30.660Z,9.00
2023-12-15T18:07:00.300Z,9.00
2023-12-15T18:09:28.325Z,9.00
2023-12-15T18:11:56.304Z,9.00
2023-12-15T18:14:25.697Z,9.00
2023-12-15T18:16:53.724Z,9.00
2023-12-15T18:19:23.002Z,9.00
2023-12-15T18:21:51.185Z,9.00
2023-12-15T18:24:19.497Z,9.00
2023-12-15T18:26:48.119Z,9.00
2023-12-15T18:29:16.296Z,9.10
2023-12-15T18:31:45.692Z,9.10
2023-12-15T18:34:14.287Z,9.10
2023-12-15T18:36:42.331Z,9.10
2023-12-15T18:39:12.732Z,9.20
2023-12-15T18:41:43.052Z,9.20
2023-12-15T18:44:11.210Z,9.20
2023-12-15T18:46:39.408Z,9.20
2023-12-15T18:49:08.951Z,9.20
2023-12-15T18:51:37.136Z,9.20
2023-12-15T18:54:05.315Z,9.20
2023-12-15T18:56:33.282Z,9.20
2023-12-15T18:59:01.268Z,9.10
2023-12-15T19:01:32.230Z,9.10
2023-12-15T19:04:00.377Z,9.10
2023-12-15T19:06:29.760Z,9.10
2023-12-15T19:08:58.385Z,9.10
2023-12-15T19:11:27.549Z,9.10
2023-12-15T19:13:55.787Z,9.10
2023-12-15T19:16:25.005Z,9.10
2023-12-15T19:18:53.622Z,9.10
2023-12-15T19:21:22.686Z,9.00
2023-12-15T19:23:53.680Z,9.10
2023-12-15T19:26:21.874Z,9.10
2023-12-15T19:28:49.932Z,9.10
2023-12-15T19:31:18.003Z,9.10
2023-12-15T19:33:46.279Z,9.10
2023-12-15T19:36:14.464Z,9.20
2023-12-15T19:38:43.028Z,9.10
2023-12-15T19:41:18.201Z,9.20
2023-12-15T19:43:47.211Z,9.20
2023-12-15T19:46:21.548Z,9.20
2023-12-15T19:48:49.799Z,9.20
2023-12-15T19:51:19.273Z,9.20
2023-12-15T19:53:47.582Z,9.20
2023-12-15T19:56:23.888Z,9.30
2023-12-15T19:58:52.381Z,9.30
2023-12-15T20:01:27.862Z,9.20
2023-12-15T20:03:56.286Z,9.20
2023-12-15T20:06:25.903Z,9.20
2023-12-15T20:08:53.901Z,9.20
2023-12-15T20:11:23.275Z,9.20
2023-12-15T20:13:51.289Z,9.20
2023-12-15T20:16:19.602Z,9.30
2023-12-15T20:18:48.994Z,9.30
2023-12-15T20:21:18.991Z,9.30
2023-12-15T20:23:47.212Z,9.30
2023-12-15T20:26:15.342Z,9.40
2023-12-15T20:28:44.723Z,9.40
2023-12-15T20:31:14.954Z,9.40
2023-12-15T20:33:43.498Z,9.40
2023-12-15T20:36:12.256Z,9.40
2023-12-15T20:38:40.241Z,9.40
2023-12-15T20:41:10.132Z,9.40
2023-12-15T20:43:39.645Z,9.40
2023-12-15T20:46:11.181Z,9.40
2023-12-15T20:48:39.632Z,9.40
2023-12-15T20:51:09.860Z,9.40
2023-12-15T20:53:38.343Z,9.30
2023-12-15T20:56:06.674Z,9.30
2023-12-15T20:58:34.819Z,9.30
2023-12-15T21:01:02.943Z,9.40
2023-12-15T21:03:32.667Z,9.40
2023-12-15T21:06:00.701Z,9.40
2023-12-15T21:08:28.741Z,9.40
2023-12-15T21:10:56.741Z,9.40
2023-12-15T21:13:25.119Z,9.50
2023-12-15T21:15:53.186Z,9.50
2023-12-15T21:18:21.395Z,9.50
2023-12-15T21:20:50.950Z,9.50
2023-12-15T21:23:19.010Z,9.50
2023-12-15T21:25:46.994Z,9.60
2023-12-15T21:28:15.486Z,9.60
2023-12-15T21:30:43.651Z,9.60
2023-12-15T21:33:11.798Z,9.60
2023-12-15T21:35:47.011Z,9.60
2023-12-15T21:38:23.039Z,9.60
2023-12-15T21:40:53.036Z,9.60
2023-12-15T21:43:21.157Z,9.70
2023-12-15T21:45:49.230Z,9.60
2023-12-15T21:48:17.684Z,9.60
2023-12-15T21:50:47.117Z,9.60
2023-12-15T21:53:16.305Z,9.60
2023-12-15T21:55:47.861Z,9.70
2023-12-15T21:58:15.897Z,9.60
2023-12-15T22:00:44.031Z,9.70
2023-12-15T22:03:12.116Z,9.70
2023-12-15T22:05:40.428Z,9.70
2023-12-15T22:08:08.502Z,9.60
2023-12-15T22:10:36.558Z,9.70
2023-12-15T22:13:08.191Z,9.60
2023-12-15T22:15:36.649Z,9.60
2023-12-15T22:18:05.056Z,9.60
2023-12-15T22:20:33.107Z,9.60
2023-12-15T22:23:01.112Z,9.60
2023-12-15T22:25:29.201Z,9.60
2023-12-15T22:27:57.294Z,9.60
2023-12-15T22:30:27.076Z,9.70
2023-12-15T22:32:55.421Z,9.70
2023-12-15T22:35:23.414Z,9.70
2023-12-15T22:37:51.457Z,9.70
2023-12-15T22:40:19.545Z,9.60
2023-12-15T22:42:47.505Z,9.60
2023-12-15T22:45:15.576Z,9.50
2023-12-15T22:47:45.282Z,9.50
2023-12-15T22:50:13.710Z,9.50
2023-12-15T22:52:41.909Z,9.50
2023-12-15T22:55:10.437Z,9.50
2023-12-15T22:57:38.698Z,9.50
2023-12-15T23:00:09.432Z,9.50
2023-12-15T23:02:37.473Z,9.50
2023-12-15T23:05:08.031Z,9.50
2023-12-15T23:07:36.310Z,9.50
2023-12-15T23:10:06.119Z,9.50
2023-12-15T23:12:34.228Z,9.60
2023-12-15T23:15:07.491Z,9.60
2023-12-15T23:17:42.891Z,9.60
2023-12-15T23:20:15.433Z,9.50
2023-12-15T23:22:43.421Z,9.60
2023-12-15T23:25:11.782Z,9.50
2023-12-15T23:27:40.033Z,9.60
2023-12-15T23:30:09.554Z,9.60
2023-12-15T23:32:37.672Z,9.70
2023-12-15T23:35:06.856Z,9.60
2023-12-15T23:37:36.407Z,9.60
2023-12-15T23:40:04.960Z,9.60
2023-12-15T23:42:33.121Z,9.60
2023-12-15T23:45:01.116Z,9.60
2023-12-15T23:47:29.206Z,9.60
2023-12-15T23:49:57.587Z,9.60
2023-12-15T23:52:26.133Z,9.60
2023-12-15T23:54:56.999Z,9.60
2023-12-15T23:57:26.633Z,9.60
2023-12-15T23:59:55.676Z,9.60
